aviador You're here:

KMCF Decoded Metar

TAMPA in FL, USA
Report Time2018-06-17 20:56:00
UTC Time2018-06-17 21:40:36
Flight Rules vfr VFR
WindCalm
Visibility9999 m
Phenomena:N/A
Clouds:Broken 055 Hf
Expected CloudBase > 4,800 ft AGL from Temp-Dew spread
Ceiling5,500 ft
Temp34°C (ISA +19)
Dew Point22°C (49% RH)
Heat Index38.1°C
QNH1018 hPa
Density Alt2,356 ft
Elevation13 ft
Report Wrong Elevation
Raw Report
KMCF 172056Z AUTO 00000KT 10SM BKN055 34/22 A3007 RMK AO2 SLP186
T03350219 57014 FZRANO $=

Extra information for KMCF:More info

Metar Taf Metar & Taf Last 4 Metars F.Rules Stats Wind Profile Meteogram Temp Stats Airport Information Weather charts Add Link Nearby VenuesMetar ALERT Operation Metar Decoded Social comments

AIRNAV info for KMCF